Pagrindinis puslapis
METAR-TAF:

METAR-TAF

Oro uostai :

Volgogradas, Rusija

platuma: 48-47N, ilguma: 044-22E, Aukštis: 145 m

Dabartinis oras

Ataskaita buvo paskelbta 13 minutes, ne 08:30 UTC
Vėjas 16 kt iš Vakarų
Temperatūra 0°C
Drėgmė 100%
Slėgis 1023 hPa
Matomumas: 5000 m
Apsiniaukę ne aukštis 300 ft
rūkana

METAR: URWW 060830Z 28008MPS 5000 BR OVC003 00/M00 Q1023 R24/290150 TEMPO 0300 FZFG RMK OBST OBSC

Laikas: 12:43 (08:43 UTC)

Prognozė

Ataskaita buvo paskelbta 44 minutes, ne 07:59 UTC
Prognozė galioja nuo 06 metu 09 UTC su 06 metu 18 UTC
Vėjas 17 kt iš Vakarų su gūsio iki 29 kt
Matomumas: 0300 m
Apsiniaukę ne aukštis 200 ft
įšaldymas rūko
Laikinai
nuo 06 metu 09 UTC su 06 metu 18 UTC
Vėjas 19 kt iš Vakarų/Pietvakarių su gūsio iki 29 kt
Matomumas: 3100 m
Apsiniaukę ne aukštis 300 ft
(silpnas) ledijantis, dulksna, rūkana

TAF: URWW 060759Z 0609/0618 27009G15MPS 0300 FZFG OVC002 TEMPO 0609/0618 25010G15MPS 3100 -FZDZ BR OVC003

Orai ataskaitas ir orų prognozės (METAR, TAF).

turimą stotys yra geltonos ir raudonos taškus žemėlapyje.

Perkelti pele per norėdami pamatyti stoties vardą.

Tada spustelėkite, norėdami matyti oro stebėjimo ir prognozės.

Norėdami pakeisti žemėlapį: spustelėkite ant žalios mygtukų su juodo kryžiaus žemyn,; žalią mygtuką su brūkšneliu, jei norite nutolinti; arba žalių rodyklių gretimoms žemėlapius.


METAR-TAF: